sensor_id;sensor_type;location;lat;lon;timestamp;P1;durP1;ratioP1;P2;durP2;ratioP2
80711;SDS011;70078;51.596;5.678;2023-07-31T00:00:14;14.30;;;7.53;;
80711;SDS011;70078;51.596;5.678;2023-07-31T00:02:39;19.85;;;7.60;;
80711;SDS011;70078;51.596;5.678;2023-07-31T00:05:05;21.80;;;7.00;;
80711;SDS011;70078;51.596;5.678;2023-07-31T00:07:31;18.70;;;7.13;;
80711;SDS011;70078;51.596;5.678;2023-07-31T00:09:57;19.77;;;7.70;;
80711;SDS011;70078;51.596;5.678;2023-07-31T00:12:23;19.85;;;8.50;;
80711;SDS011;70078;51.596;5.678;2023-07-31T00:14:48;18.20;;;7.80;;
80711;SDS011;70078;51.596;5.678;2023-07-31T00:17:14;20.00;;;8.60;;
80711;SDS011;70078;51.596;5.678;2023-07-31T00:19:40;19.90;;;9.15;;
80711;SDS011;70078;51.596;5.678;2023-07-31T00:22:05;22.33;;;8.40;;
80711;SDS011;70078;51.596;5.678;2023-07-31T00:24:30;16.98;;;8.18;;
80711;SDS011;70078;51.596;5.678;2023-07-31T00:26:56;16.42;;;7.43;;
80711;SDS011;70078;51.596;5.678;2023-07-31T00:29:21;20.00;;;7.47;;
80711;SDS011;70078;51.596;5.678;2023-07-31T00:31:47;16.73;;;6.45;;
80711;SDS011;70078;51.596;5.678;2023-07-31T00:34:12;14.80;;;7.35;;
80711;SDS011;70078;51.596;5.678;2023-07-31T00:36:37;16.48;;;6.68;;
80711;SDS011;70078;51.596;5.678;2023-07-31T00:39:03;15.80;;;7.32;;
80711;SDS011;70078;51.596;5.678;2023-07-31T00:41:29;18.77;;;7.60;;
80711;SDS011;70078;51.596;5.678;2023-07-31T00:43:55;15.07;;;6.78;;
80711;SDS011;70078;51.596;5.678;2023-07-31T00:46:20;18.30;;;6.68;;
80711;SDS011;70078;51.596;5.678;2023-07-31T00:48:46;17.85;;;6.00;;
80711;SDS011;70078;51.596;5.678;2023-07-31T00:51:11;16.42;;;5.68;;
80711;SDS011;70078;51.596;5.678;2023-07-31T00:53:37;20.73;;;6.93;;
80711;SDS011;70078;51.596;5.678;2023-07-31T00:56:03;12.02;;;5.30;;
80711;SDS011;70078;51.596;5.678;2023-07-31T00:58:29;17.20;;;6.50;;
80711;SDS011;70078;51.596;5.678;2023-07-31T01:00:55;15.90;;;6.03;;
80711;SDS011;70078;51.596;5.678;2023-07-31T01:03:20;20.15;;;7.07;;
80711;SDS011;70078;51.596;5.678;2023-07-31T01:08:33;17.02;;;6.65;;
80711;SDS011;70078;51.596;5.678;2023-07-31T01:11:00;14.20;;;5.63;;
80711;SDS011;70078;51.596;5.678;2023-07-31T01:13:32;12.07;;;5.38;;
80711;SDS011;70078;51.596;5.678;2023-07-31T01:15:58;13.30;;;5.47;;
80711;SDS011;70078;51.596;5.678;2023-07-31T01:18:23;11.18;;;4.97;;
80711;SDS011;70078;51.596;5.678;2023-07-31T01:20:52;15.10;;;6.47;;
80711;SDS011;70078;51.596;5.678;2023-07-31T01:26:12;12.35;;;4.78;;
80711;SDS011;70078;51.596;5.678;2023-07-31T01:29:00;12.93;;;5.07;;
80711;SDS011;70078;51.596;5.678;2023-07-31T01:31:32;11.93;;;5.78;;
80711;SDS011;70078;51.596;5.678;2023-07-31T01:34:00;13.05;;;4.90;;
80711;SDS011;70078;51.596;5.678;2023-07-31T01:36:26;11.05;;;4.72;;
80711;SDS011;70078;51.596;5.678;2023-07-31T01:38:57;16.50;;;5.82;;
80711;SDS011;70078;51.596;5.678;2023-07-31T01:41:23;9.52;;;3.22;;
80711;SDS011;70078;51.596;5.678;2023-07-31T01:43:48;10.43;;;5.00;;
80711;SDS011;70078;51.596;5.678;2023-07-31T01:46:14;10.93;;;5.35;;
80711;SDS011;70078;51.596;5.678;2023-07-31T01:48:39;14.93;;;5.68;;
80711;SDS011;70078;51.596;5.678;2023-07-31T01:51:04;12.98;;;5.38;;
80711;SDS011;70078;51.596;5.678;2023-07-31T01:53:31;14.10;;;6.07;;
80711;SDS011;70078;51.596;5.678;2023-07-31T01:55:56;13.68;;;5.50;;
80711;SDS011;70078;51.596;5.678;2023-07-31T01:58:21;13.23;;;5.05;;
80711;SDS011;70078;51.596;5.678;2023-07-31T02:00:47;10.77;;;5.07;;
80711;SDS011;70078;51.596;5.678;2023-07-31T02:03:12;13.85;;;5.80;;
80711;SDS011;70078;51.596;5.678;2023-07-31T02:05:44;14.30;;;5.20;;
80711;SDS011;70078;51.596;5.678;2023-07-31T02:08:13;10.48;;;5.40;;
80711;SDS011;70078;51.596;5.678;2023-07-31T02:10:39;9.07;;;4.70;;
80711;SDS011;70078;51.596;5.678;2023-07-31T02:13:04;15.30;;;5.90;;
80711;SDS011;70078;51.596;5.678;2023-07-31T02:15:30;11.07;;;5.25;;
80711;SDS011;70078;51.596;5.678;2023-07-31T02:17:55;12.88;;;6.05;;
80711;SDS011;70078;51.596;5.678;2023-07-31T02:20:21;11.50;;;5.47;;
80711;SDS011;70078;51.596;5.678;2023-07-31T02:22:46;13.55;;;5.40;;
80711;SDS011;70078;51.596;5.678;2023-07-31T02:25:12;13.10;;;5.55;;
80711;SDS011;70078;51.596;5.678;2023-07-31T02:27:37;15.95;;;6.22;;
80711;SDS011;70078;51.596;5.678;2023-07-31T02:30:03;12.50;;;4.68;;
80711;SDS011;70078;51.596;5.678;2023-07-31T02:32:28;14.27;;;5.72;;
80711;SDS011;70078;51.596;5.678;2023-07-31T02:34:54;12.52;;;5.38;;
80711;SDS011;70078;51.596;5.678;2023-07-31T02:37:19;12.05;;;5.05;;
80711;SDS011;70078;51.596;5.678;2023-07-31T02:39:44;18.00;;;5.28;;
80711;SDS011;70078;51.596;5.678;2023-07-31T02:42:10;15.73;;;6.20;;
80711;SDS011;70078;51.596;5.678;2023-07-31T02:44:35;10.95;;;4.65;;
80711;SDS011;70078;51.596;5.678;2023-07-31T02:47:01;11.05;;;5.30;;
80711;SDS011;70078;51.596;5.678;2023-07-31T02:49:26;12.73;;;5.03;;
80711;SDS011;70078;51.596;5.678;2023-07-31T02:51:51;16.67;;;6.13;;
80711;SDS011;70078;51.596;5.678;2023-07-31T02:54:17;12.38;;;5.30;;
80711;SDS011;70078;51.596;5.678;2023-07-31T02:56:42;12.88;;;6.25;;
80711;SDS011;70078;51.596;5.678;2023-07-31T02:59:08;12.82;;;5.50;;
80711;SDS011;70078;51.596;5.678;2023-07-31T03:01:34;13.85;;;5.72;;
80711;SDS011;70078;51.596;5.678;2023-07-31T03:03:59;12.13;;;5.82;;
80711;SDS011;70078;51.596;5.678;2023-07-31T03:06:25;13.95;;;6.15;;
80711;SDS011;70078;51.596;5.678;2023-07-31T03:08:52;15.15;;;5.20;;
80711;SDS011;70078;51.596;5.678;2023-07-31T03:11:17;15.25;;;5.47;;
80711;SDS011;70078;51.596;5.678;2023-07-31T03:13:42;13.55;;;5.35;;
80711;SDS011;70078;51.596;5.678;2023-07-31T03:16:08;17.67;;;5.32;;
80711;SDS011;70078;51.596;5.678;2023-07-31T03:18:34;16.90;;;6.03;;
80711;SDS011;70078;51.596;5.678;2023-07-31T03:20:59;14.13;;;5.80;;
80711;SDS011;70078;51.596;5.678;2023-07-31T03:23:24;13.05;;;5.03;;
80711;SDS011;70078;51.596;5.678;2023-07-31T03:26:00;16.05;;;5.15;;
80711;SDS011;70078;51.596;5.678;2023-07-31T03:28:28;13.23;;;5.68;;
80711;SDS011;70078;51.596;5.678;2023-07-31T03:30:54;9.02;;;5.18;;
80711;SDS011;70078;51.596;5.678;2023-07-31T03:33:19;12.73;;;5.32;;
80711;SDS011;70078;51.596;5.678;2023-07-31T03:35:45;14.88;;;4.05;;
80711;SDS011;70078;51.596;5.678;2023-07-31T03:38:10;11.73;;;5.55;;
80711;SDS011;70078;51.596;5.678;2023-07-31T03:40:36;13.68;;;6.00;;
80711;SDS011;70078;51.596;5.678;2023-07-31T03:43:01;16.15;;;5.82;;
80711;SDS011;70078;51.596;5.678;2023-07-31T03:45:26;13.52;;;5.45;;
80711;SDS011;70078;51.596;5.678;2023-07-31T03:47:52;14.10;;;6.60;;
80711;SDS011;70078;51.596;5.678;2023-07-31T03:50:19;13.45;;;4.97;;
80711;SDS011;70078;51.596;5.678;2023-07-31T03:52:45;14.25;;;5.32;;
80711;SDS011;70078;51.596;5.678;2023-07-31T03:55:10;15.05;;;5.70;;
80711;SDS011;70078;51.596;5.678;2023-07-31T03:57:35;16.88;;;5.85;;
80711;SDS011;70078;51.596;5.678;2023-07-31T04:00:01;14.93;;;5.88;;
80711;SDS011;70078;51.596;5.678;2023-07-31T04:02:26;13.13;;;5.05;;
80711;SDS011;70078;51.596;5.678;2023-07-31T04:04:51;14.98;;;5.30;;
80711;SDS011;70078;51.596;5.678;2023-07-31T04:07:17;13.07;;;6.40;;
80711;SDS011;70078;51.596;5.678;2023-07-31T04:09:42;9.57;;;5.63;;
80711;SDS011;70078;51.596;5.678;2023-07-31T04:12:07;15.95;;;4.88;;
80711;SDS011;70078;51.596;5.678;2023-07-31T04:14:33;13.40;;;6.25;;
80711;SDS011;70078;51.596;5.678;2023-07-31T04:16:58;10.50;;;5.47;;
80711;SDS011;70078;51.596;5.678;2023-07-31T04:19:24;13.43;;;5.25;;
80711;SDS011;70078;51.596;5.678;2023-07-31T04:21:49;12.88;;;7.30;;
80711;SDS011;70078;51.596;5.678;2023-07-31T04:24:15;17.40;;;6.88;;
80711;SDS011;70078;51.596;5.678;2023-07-31T04:26:40;15.43;;;5.40;;
80711;SDS011;70078;51.596;5.678;2023-07-31T04:29:06;14.68;;;6.03;;
80711;SDS011;70078;51.596;5.678;2023-07-31T04:31:32;16.33;;;5.53;;
80711;SDS011;70078;51.596;5.678;2023-07-31T04:33:58;12.85;;;5.10;;
80711;SDS011;70078;51.596;5.678;2023-07-31T04:36:23;12.38;;;5.28;;
80711;SDS011;70078;51.596;5.678;2023-07-31T04:38:49;14.65;;;5.22;;
80711;SDS011;70078;51.596;5.678;2023-07-31T04:41:14;13.48;;;5.20;;
80711;SDS011;70078;51.596;5.678;2023-07-31T04:43:40;13.50;;;5.28;;
80711;SDS011;70078;51.596;5.678;2023-07-31T04:46:05;12.55;;;5.70;;
80711;SDS011;70078;51.596;5.678;2023-07-31T04:48:31;14.60;;;5.72;;
80711;SDS011;70078;51.596;5.678;2023-07-31T04:50:56;13.75;;;5.88;;
80711;SDS011;70078;51.596;5.678;2023-07-31T04:53:22;11.82;;;5.50;;
80711;SDS011;70078;51.596;5.678;2023-07-31T04:55:47;11.98;;;5.18;;
80711;SDS011;70078;51.596;5.678;2023-07-31T04:58:12;10.85;;;4.80;;
80711;SDS011;70078;51.596;5.678;2023-07-31T05:00:38;12.05;;;5.68;;
80711;SDS011;70078;51.596;5.678;2023-07-31T05:03:03;16.20;;;7.00;;
80711;SDS011;70078;51.596;5.678;2023-07-31T05:05:29;9.05;;;4.10;;
80711;SDS011;70078;51.596;5.678;2023-07-31T05:07:55;11.65;;;4.82;;
80711;SDS011;70078;51.596;5.678;2023-07-31T05:10:20;10.95;;;5.05;;
80711;SDS011;70078;51.596;5.678;2023-07-31T05:12:46;10.80;;;5.30;;
80711;SDS011;70078;51.596;5.678;2023-07-31T05:15:11;14.00;;;4.60;;
80711;SDS011;70078;51.596;5.678;2023-07-31T05:17:36;10.13;;;5.28;;
80711;SDS011;70078;51.596;5.678;2023-07-31T05:20:02;9.35;;;4.68;;
80711;SDS011;70078;51.596;5.678;2023-07-31T05:22:27;12.27;;;5.85;;
80711;SDS011;70078;51.596;5.678;2023-07-31T05:24:53;12.35;;;6.53;;
80711;SDS011;70078;51.596;5.678;2023-07-31T05:27:19;12.55;;;4.70;;
80711;SDS011;70078;51.596;5.678;2023-07-31T05:29:44;14.20;;;5.80;;
80711;SDS011;70078;51.596;5.678;2023-07-31T05:32:10;14.73;;;6.10;;
80711;SDS011;70078;51.596;5.678;2023-07-31T05:34:36;10.60;;;5.60;;
80711;SDS011;70078;51.596;5.678;2023-07-31T05:37:01;8.02;;;5.10;;
80711;SDS011;70078;51.596;5.678;2023-07-31T05:39:26;11.32;;;5.55;;
80711;SDS011;70078;51.596;5.678;2023-07-31T05:41:52;17.13;;;8.02;;
80711;SDS011;70078;51.596;5.678;2023-07-31T05:44:17;12.95;;;6.13;;
80711;SDS011;70078;51.596;5.678;2023-07-31T05:46:42;9.18;;;5.28;;
80711;SDS011;70078;51.596;5.678;2023-07-31T05:49:08;9.13;;;5.25;;
80711;SDS011;70078;51.596;5.678;2023-07-31T05:51:33;11.73;;;5.50;;
80711;SDS011;70078;51.596;5.678;2023-07-31T05:53:58;13.38;;;6.43;;
80711;SDS011;70078;51.596;5.678;2023-07-31T05:56:24;10.02;;;4.03;;
80711;SDS011;70078;51.596;5.678;2023-07-31T05:58:49;6.63;;;3.97;;
80711;SDS011;70078;51.596;5.678;2023-07-31T06:01:16;12.18;;;5.00;;
80711;SDS011;70078;51.596;5.678;2023-07-31T06:03:41;12.13;;;5.15;;
80711;SDS011;70078;51.596;5.678;2023-07-31T06:06:07;9.25;;;4.78;;
80711;SDS011;70078;51.596;5.678;2023-07-31T06:08:33;9.20;;;4.35;;
80711;SDS011;70078;51.596;5.678;2023-07-31T06:10:58;10.63;;;4.88;;
80711;SDS011;70078;51.596;5.678;2023-07-31T06:13:24;7.90;;;4.82;;
80711;SDS011;70078;51.596;5.678;2023-07-31T06:15:49;9.02;;;5.10;;
80711;SDS011;70078;51.596;5.678;2023-07-31T06:18:14;8.00;;;4.35;;
80711;SDS011;70078;51.596;5.678;2023-07-31T06:20:40;9.02;;;4.88;;
80711;SDS011;70078;51.596;5.678;2023-07-31T06:23:05;6.18;;;3.72;;
80711;SDS011;70078;51.596;5.678;2023-07-31T06:25:31;8.68;;;4.65;;
80711;SDS011;70078;51.596;5.678;2023-07-31T06:27:56;8.60;;;4.43;;
80711;SDS011;70078;51.596;5.678;2023-07-31T06:30:22;7.45;;;4.68;;
80711;SDS011;70078;51.596;5.678;2023-07-31T06:32:47;6.53;;;3.80;;
80711;SDS011;70078;51.596;5.678;2023-07-31T06:35:12;5.45;;;3.92;;
80711;SDS011;70078;51.596;5.678;2023-07-31T06:37:38;7.70;;;4.18;;
80711;SDS011;70078;51.596;5.678;2023-07-31T06:40:05;7.30;;;3.83;;
80711;SDS011;70078;51.596;5.678;2023-07-31T06:42:33;7.13;;;4.65;;
80711;SDS011;70078;51.596;5.678;2023-07-31T06:45:00;6.88;;;4.40;;
80711;SDS011;70078;51.596;5.678;2023-07-31T06:47:25;7.78;;;4.03;;
80711;SDS011;70078;51.596;5.678;2023-07-31T06:49:51;7.18;;;4.43;;
80711;SDS011;70078;51.596;5.678;2023-07-31T06:52:16;8.20;;;4.72;;
80711;SDS011;70078;51.596;5.678;2023-07-31T06:54:42;6.53;;;4.38;;
80711;SDS011;70078;51.596;5.678;2023-07-31T06:57:07;6.97;;;4.45;;
80711;SDS011;70078;51.596;5.678;2023-07-31T06:59:33;11.07;;;4.68;;
80711;SDS011;70078;51.596;5.678;2023-07-31T07:01:58;8.02;;;4.72;;
80711;SDS011;70078;51.596;5.678;2023-07-31T07:04:23;6.32;;;3.97;;
80711;SDS011;70078;51.596;5.678;2023-07-31T07:06:49;8.65;;;4.53;;
80711;SDS011;70078;51.596;5.678;2023-07-31T07:09:14;8.88;;;5.10;;
80711;SDS011;70078;51.596;5.678;2023-07-31T07:11:39;8.52;;;6.05;;
80711;SDS011;70078;51.596;5.678;2023-07-31T07:14:05;5.75;;;3.85;;
80711;SDS011;70078;51.596;5.678;2023-07-31T07:16:30;7.70;;;4.85;;
80711;SDS011;70078;51.596;5.678;2023-07-31T07:18:56;6.82;;;4.28;;
80711;SDS011;70078;51.596;5.678;2023-07-31T07:21:21;7.95;;;4.38;;
80711;SDS011;70078;51.596;5.678;2023-07-31T07:23:46;5.65;;;4.45;;
80711;SDS011;70078;51.596;5.678;2023-07-31T07:26:12;6.00;;;3.95;;
80711;SDS011;70078;51.596;5.678;2023-07-31T07:28:37;5.45;;;4.22;;
80711;SDS011;70078;51.596;5.678;2023-07-31T07:31:03;8.10;;;4.35;;
80711;SDS011;70078;51.596;5.678;2023-07-31T07:33:28;6.63;;;3.92;;
80711;SDS011;70078;51.596;5.678;2023-07-31T07:35:53;6.03;;;4.55;;
80711;SDS011;70078;51.596;5.678;2023-07-31T07:38:19;5.90;;;4.25;;
80711;SDS011;70078;51.596;5.678;2023-07-31T07:40:44;7.78;;;4.00;;
80711;SDS011;70078;51.596;5.678;2023-07-31T07:43:11;7.05;;;4.10;;
80711;SDS011;70078;51.596;5.678;2023-07-31T07:45:37;7.35;;;5.32;;
80711;SDS011;70078;51.596;5.678;2023-07-31T07:48:02;7.28;;;4.68;;
80711;SDS011;70078;51.596;5.678;2023-07-31T07:50:28;7.40;;;4.20;;
80711;SDS011;70078;51.596;5.678;2023-07-31T07:52:53;8.80;;;4.30;;
80711;SDS011;70078;51.596;5.678;2023-07-31T07:55:18;7.70;;;4.00;;
80711;SDS011;70078;51.596;5.678;2023-07-31T07:57:44;5.60;;;3.83;;
80711;SDS011;70078;51.596;5.678;2023-07-31T08:00:10;7.18;;;4.45;;
80711;SDS011;70078;51.596;5.678;2023-07-31T08:02:37;6.00;;;4.00;;
80711;SDS011;70078;51.596;5.678;2023-07-31T08:05:02;7.35;;;4.20;;
80711;SDS011;70078;51.596;5.678;2023-07-31T08:07:28;5.90;;;3.97;;
80711;SDS011;70078;51.596;5.678;2023-07-31T08:09:53;5.35;;;3.75;;
80711;SDS011;70078;51.596;5.678;2023-07-31T08:12:19;7.10;;;5.43;;
80711;SDS011;70078;51.596;5.678;2023-07-31T08:14:44;8.80;;;5.07;;
80711;SDS011;70078;51.596;5.678;2023-07-31T08:17:09;7.13;;;4.20;;
80711;SDS011;70078;51.596;5.678;2023-07-31T08:19:35;7.80;;;4.45;;
80711;SDS011;70078;51.596;5.678;2023-07-31T08:22:00;6.60;;;4.45;;
80711;SDS011;70078;51.596;5.678;2023-07-31T08:24:25;7.68;;;4.53;;
80711;SDS011;70078;51.596;5.678;2023-07-31T08:26:51;7.78;;;5.32;;
80711;SDS011;70078;51.596;5.678;2023-07-31T08:29:16;8.75;;;6.18;;
80711;SDS011;70078;51.596;5.678;2023-07-31T08:31:42;6.57;;;4.40;;
80711;SDS011;70078;51.596;5.678;2023-07-31T08:34:07;11.52;;;6.55;;
80711;SDS011;70078;51.596;5.678;2023-07-31T08:36:32;8.65;;;5.20;;
80711;SDS011;70078;51.596;5.678;2023-07-31T08:38:58;13.18;;;5.82;;
80711;SDS011;70078;51.596;5.678;2023-07-31T08:41:23;8.07;;;5.05;;
80711;SDS011;70078;51.596;5.678;2023-07-31T08:43:52;8.10;;;6.18;;
80711;SDS011;70078;51.596;5.678;2023-07-31T08:46:20;12.18;;;6.78;;
80711;SDS011;70078;51.596;5.678;2023-07-31T08:48:46;10.05;;;5.15;;
80711;SDS011;70078;51.596;5.678;2023-07-31T08:51:13;9.40;;;5.25;;
80711;SDS011;70078;51.596;5.678;2023-07-31T08:53:39;6.82;;;5.38;;
80711;SDS011;70078;51.596;5.678;2023-07-31T08:56:04;6.90;;;4.72;;
80711;SDS011;70078;51.596;5.678;2023-07-31T08:58:32;11.70;;;6.22;;
80711;SDS011;70078;51.596;5.678;2023-07-31T09:00:58;11.52;;;5.57;;
80711;SDS011;70078;51.596;5.678;2023-07-31T09:03:26;7.05;;;4.97;;
80711;SDS011;70078;51.596;5.678;2023-07-31T09:05:52;8.13;;;5.05;;
80711;SDS011;70078;51.596;5.678;2023-07-31T09:08:20;8.43;;;5.95;;
80711;SDS011;70078;51.596;5.678;2023-07-31T09:10:46;9.13;;;5.25;;
80711;SDS011;70078;51.596;5.678;2023-07-31T09:13:15;9.00;;;5.55;;
80711;SDS011;70078;51.596;5.678;2023-07-31T09:15:45;9.93;;;6.15;;
80711;SDS011;70078;51.596;5.678;2023-07-31T09:18:11;9.27;;;4.95;;
80711;SDS011;70078;51.596;5.678;2023-07-31T09:20:36;9.02;;;5.30;;
80711;SDS011;70078;51.596;5.678;2023-07-31T09:23:06;9.75;;;5.85;;
80711;SDS011;70078;51.596;5.678;2023-07-31T09:25:34;9.23;;;5.50;;
80711;SDS011;70078;51.596;5.678;2023-07-31T09:30:25;11.88;;;6.47;;
80711;SDS011;70078;51.596;5.678;2023-07-31T09:32:52;11.80;;;6.90;;
80711;SDS011;70078;51.596;5.678;2023-07-31T09:35:29;10.35;;;6.72;;
80711;SDS011;70078;51.596;5.678;2023-07-31T09:38:06;8.70;;;6.00;;
80711;SDS011;70078;51.596;5.678;2023-07-31T09:40:34;10.60;;;6.95;;
80711;SDS011;70078;51.596;5.678;2023-07-31T09:43:02;8.82;;;6.20;;
80711;SDS011;70078;51.596;5.678;2023-07-31T09:45:28;10.30;;;5.20;;
80711;SDS011;70078;51.596;5.678;2023-07-31T09:47:55;11.05;;;5.53;;
80711;SDS011;70078;51.596;5.678;2023-07-31T09:50:22;9.27;;;6.07;;
80711;SDS011;70078;51.596;5.678;2023-07-31T09:52:48;19.02;;;6.65;;
80711;SDS011;70078;51.596;5.678;2023-07-31T09:55:14;10.20;;;5.85;;
80711;SDS011;70078;51.596;5.678;2023-07-31T09:57:40;9.32;;;5.82;;
80711;SDS011;70078;51.596;5.678;2023-07-31T10:00:08;7.75;;;5.63;;
80711;SDS011;70078;51.596;5.678;2023-07-31T10:02:34;8.70;;;6.13;;
80711;SDS011;70078;51.596;5.678;2023-07-31T10:05:02;9.48;;;6.03;;
80711;SDS011;70078;51.596;5.678;2023-07-31T10:07:30;9.25;;;6.85;;
80711;SDS011;70078;51.596;5.678;2023-07-31T10:09:59;7.93;;;5.82;;
80711;SDS011;70078;51.596;5.678;2023-07-31T10:12:26;9.02;;;5.65;;
80711;SDS011;70078;51.596;5.678;2023-07-31T10:14:55;9.55;;;5.00;;
80711;SDS011;70078;51.596;5.678;2023-07-31T10:17:21;9.38;;;5.40;;
80711;SDS011;70078;51.596;5.678;2023-07-31T10:19:48;8.82;;;5.25;;
80711;SDS011;70078;51.596;5.678;2023-07-31T10:22:14;7.22;;;5.32;;
80711;SDS011;70078;51.596;5.678;2023-07-31T10:24:41;9.35;;;4.88;;
80711;SDS011;70078;51.596;5.678;2023-07-31T10:27:08;9.77;;;5.82;;
80711;SDS011;70078;51.596;5.678;2023-07-31T10:29:35;8.90;;;5.53;;
80711;SDS011;70078;51.596;5.678;2023-07-31T10:32:01;6.78;;;4.85;;
80711;SDS011;70078;51.596;5.678;2023-07-31T10:34:31;10.48;;;5.57;;
80711;SDS011;70078;51.596;5.678;2023-07-31T10:40:38;7.88;;;4.90;;
80711;SDS011;70078;51.596;5.678;2023-07-31T10:42:50;6.70;;;4.80;;
80711;SDS011;70078;51.596;5.678;2023-07-31T10:45:50;10.27;;;5.63;;
80711;SDS011;70078;51.596;5.678;2023-07-31T10:48:13;9.27;;;4.85;;
80711;SDS011;70078;51.596;5.678;2023-07-31T10:50:49;8.63;;;5.18;;
80711;SDS011;70078;51.596;5.678;2023-07-31T10:55:49;6.47;;;4.28;;
80711;SDS011;70078;51.596;5.678;2023-07-31T10:58:18;8.10;;;5.32;;
80711;SDS011;70078;51.596;5.678;2023-07-31T11:00:45;7.38;;;4.05;;
80711;SDS011;70078;51.596;5.678;2023-07-31T11:03:18;5.57;;;4.05;;
80711;SDS011;70078;51.596;5.678;2023-07-31T11:08:24;6.28;;;4.47;;
80711;SDS011;70078;51.596;5.678;2023-07-31T11:13:31;10.35;;;5.68;;
80711;SDS011;70078;51.596;5.678;2023-07-31T11:16:05;8.05;;;4.47;;
80711;SDS011;70078;51.596;5.678;2023-07-31T11:18:30;8.55;;;4.78;;
80711;SDS011;70078;51.596;5.678;2023-07-31T11:20:56;8.05;;;4.60;;
80711;SDS011;70078;51.596;5.678;2023-07-31T11:23:22;7.35;;;5.30;;
80711;SDS011;70078;51.596;5.678;2023-07-31T11:25:48;8.98;;;5.15;;
80711;SDS011;70078;51.596;5.678;2023-07-31T11:28:15;5.93;;;4.38;;
80711;SDS011;70078;51.596;5.678;2023-07-31T11:30:43;6.97;;;4.55;;
80711;SDS011;70078;51.596;5.678;2023-07-31T11:33:10;7.47;;;4.25;;
80711;SDS011;70078;51.596;5.678;2023-07-31T11:35:41;7.82;;;5.00;;
80711;SDS011;70078;51.596;5.678;2023-07-31T11:38:09;6.20;;;4.97;;
80711;SDS011;70078;51.596;5.678;2023-07-31T11:40:42;7.53;;;4.57;;
80711;SDS011;70078;51.596;5.678;2023-07-31T11:43:08;6.22;;;4.35;;
80711;SDS011;70078;51.596;5.678;2023-07-31T11:45:34;7.70;;;5.45;;
80711;SDS011;70078;51.596;5.678;2023-07-31T11:48:03;9.95;;;4.30;;
80711;SDS011;70078;51.596;5.678;2023-07-31T11:50:28;8.75;;;4.60;;
80711;SDS011;70078;51.596;5.678;2023-07-31T11:52:59;5.60;;;4.85;;
80711;SDS011;70078;51.596;5.678;2023-07-31T11:55:28;8.75;;;4.32;;
80711;SDS011;70078;51.596;5.678;2023-07-31T11:57:56;6.55;;;4.90;;
80711;SDS011;70078;51.596;5.678;2023-07-31T12:00:22;7.47;;;4.95;;
80711;SDS011;70078;51.596;5.678;2023-07-31T12:02:50;5.55;;;4.20;;
80711;SDS011;70078;51.596;5.678;2023-07-31T12:05:16;6.40;;;4.15;;
80711;SDS011;70078;51.596;5.678;2023-07-31T12:07:46;5.60;;;3.10;;
80711;SDS011;70078;51.596;5.678;2023-07-31T12:10:33;6.90;;;2.83;;
80711;SDS011;70078;51.596;5.678;2023-07-31T12:12:59;4.70;;;2.63;;
80711;SDS011;70078;51.596;5.678;2023-07-31T12:15:42;5.22;;;2.60;;
80711;SDS011;70078;51.596;5.678;2023-07-31T12:18:15;5.50;;;3.65;;
80711;SDS011;70078;51.596;5.678;2023-07-31T12:20:47;5.28;;;4.05;;
80711;SDS011;70078;51.596;5.678;2023-07-31T12:23:17;5.85;;;3.90;;
80711;SDS011;70078;51.596;5.678;2023-07-31T12:25:44;3.92;;;3.50;;
80711;SDS011;70078;51.596;5.678;2023-07-31T12:28:10;7.18;;;5.20;;
80711;SDS011;70078;51.596;5.678;2023-07-31T12:30:39;5.28;;;4.05;;
80711;SDS011;70078;51.596;5.678;2023-07-31T12:33:06;5.28;;;3.95;;
80711;SDS011;70078;51.596;5.678;2023-07-31T12:35:41;7.18;;;4.45;;
80711;SDS011;70078;51.596;5.678;2023-07-31T12:38:08;5.70;;;4.63;;
80711;SDS011;70078;51.596;5.678;2023-07-31T12:40:35;7.38;;;4.07;;
80711;SDS011;70078;51.596;5.678;2023-07-31T12:43:02;7.95;;;5.18;;
80711;SDS011;70078;51.596;5.678;2023-07-31T12:45:28;6.00;;;4.97;;
80711;SDS011;70078;51.596;5.678;2023-07-31T12:47:54;6.18;;;5.40;;
80711;SDS011;70078;51.596;5.678;2023-07-31T12:50:19;7.25;;;4.90;;
80711;SDS011;70078;51.596;5.678;2023-07-31T12:52:45;8.48;;;4.97;;
80711;SDS011;70078;51.596;5.678;2023-07-31T12:55:10;7.22;;;4.45;;
80711;SDS011;70078;51.596;5.678;2023-07-31T12:57:36;6.88;;;5.35;;
80711;SDS011;70078;51.596;5.678;2023-07-31T13:00:01;9.80;;;5.55;;
80711;SDS011;70078;51.596;5.678;2023-07-31T13:02:27;13.35;;;4.88;;
80711;SDS011;70078;51.596;5.678;2023-07-31T13:04:53;8.02;;;4.78;;
80711;SDS011;70078;51.596;5.678;2023-07-31T13:07:19;8.05;;;4.57;;
80711;SDS011;70078;51.596;5.678;2023-07-31T13:09:45;7.60;;;5.18;;
80711;SDS011;70078;51.596;5.678;2023-07-31T13:12:10;11.13;;;6.07;;
80711;SDS011;70078;51.596;5.678;2023-07-31T13:14:35;8.00;;;5.07;;
80711;SDS011;70078;51.596;5.678;2023-07-31T13:17:01;9.20;;;5.50;;
80711;SDS011;70078;51.596;5.678;2023-07-31T13:19:26;12.55;;;5.22;;
80711;SDS011;70078;51.596;5.678;2023-07-31T13:21:52;7.88;;;5.70;;
80711;SDS011;70078;51.596;5.678;2023-07-31T13:24:17;8.95;;;4.75;;
80711;SDS011;70078;51.596;5.678;2023-07-31T13:26:42;8.57;;;5.53;;
80711;SDS011;70078;51.596;5.678;2023-07-31T13:29:08;9.73;;;5.22;;
80711;SDS011;70078;51.596;5.678;2023-07-31T13:31:33;9.52;;;6.60;;
80711;SDS011;70078;51.596;5.678;2023-07-31T13:33:59;10.10;;;5.75;;
80711;SDS011;70078;51.596;5.678;2023-07-31T13:36:24;7.93;;;5.57;;
80711;SDS011;70078;51.596;5.678;2023-07-31T13:38:49;11.43;;;5.78;;
80711;SDS011;70078;51.596;5.678;2023-07-31T13:41:15;8.68;;;5.22;;
80711;SDS011;70078;51.596;5.678;2023-07-31T13:43:40;11.30;;;6.80;;
80711;SDS011;70078;51.596;5.678;2023-07-31T13:46:06;10.05;;;5.75;;
80711;SDS011;70078;51.596;5.678;2023-07-31T13:48:35;9.88;;;5.90;;
80711;SDS011;70078;51.596;5.678;2023-07-31T13:51:01;6.88;;;5.15;;
80711;SDS011;70078;51.596;5.678;2023-07-31T13:53:26;10.07;;;5.20;;
80711;SDS011;70078;51.596;5.678;2023-07-31T13:55:52;9.77;;;6.20;;
80711;SDS011;70078;51.596;5.678;2023-07-31T13:58:17;8.23;;;5.47;;
80711;SDS011;70078;51.596;5.678;2023-07-31T14:00:42;10.30;;;6.47;;
80711;SDS011;70078;51.596;5.678;2023-07-31T14:03:08;9.65;;;6.97;;
80711;SDS011;70078;51.596;5.678;2023-07-31T14:05:33;10.05;;;6.72;;
80711;SDS011;70078;51.596;5.678;2023-07-31T14:07:59;13.30;;;6.90;;
80711;SDS011;70078;51.596;5.678;2023-07-31T14:10:24;12.23;;;7.10;;
80711;SDS011;70078;51.596;5.678;2023-07-31T14:12:51;15.10;;;6.95;;
80711;SDS011;70078;51.596;5.678;2023-07-31T14:15:16;9.65;;;5.82;;
80711;SDS011;70078;51.596;5.678;2023-07-31T14:17:42;11.90;;;7.50;;
80711;SDS011;70078;51.596;5.678;2023-07-31T14:20:07;14.05;;;7.18;;
80711;SDS011;70078;51.596;5.678;2023-07-31T14:22:33;14.77;;;8.27;;
80711;SDS011;70078;51.596;5.678;2023-07-31T14:24:59;11.15;;;6.97;;
80711;SDS011;70078;51.596;5.678;2023-07-31T14:27:25;13.57;;;7.40;;
80711;SDS011;70078;51.596;5.678;2023-07-31T14:29:51;11.43;;;7.82;;
80711;SDS011;70078;51.596;5.678;2023-07-31T14:32:16;14.65;;;7.28;;
80711;SDS011;70078;51.596;5.678;2023-07-31T14:34:41;15.07;;;7.15;;
80711;SDS011;70078;51.596;5.678;2023-07-31T14:37:07;13.63;;;7.18;;
80711;SDS011;70078;51.596;5.678;2023-07-31T14:39:32;13.55;;;6.97;;
80711;SDS011;70078;51.596;5.678;2023-07-31T14:41:58;14.23;;;6.95;;
80711;SDS011;70078;51.596;5.678;2023-07-31T14:44:23;14.82;;;7.72;;
80711;SDS011;70078;51.596;5.678;2023-07-31T14:46:48;14.88;;;7.05;;
80711;SDS011;70078;51.596;5.678;2023-07-31T14:49:14;13.15;;;7.85;;
80711;SDS011;70078;51.596;5.678;2023-07-31T14:51:39;11.73;;;8.15;;
80711;SDS011;70078;51.596;5.678;2023-07-31T14:54:05;16.20;;;8.05;;